createdAt,value
2023-04-22T00:00:59.166Z,10.57
2023-04-22T00:02:02.800Z,10.69
2023-04-22T00:03:06.211Z,10.74
2023-04-22T00:04:09.778Z,10.79
2023-04-22T00:05:16.437Z,10.88
2023-04-22T00:06:21.803Z,10.97
2023-04-22T00:07:24.805Z,11.02
2023-04-22T00:08:28.008Z,11.07
2023-04-22T00:09:31.026Z,11.09
2023-04-22T00:10:35.022Z,11.10
2023-04-22T00:11:38.118Z,11.12
2023-04-22T00:12:41.145Z,11.10
2023-04-22T00:13:44.874Z,11.13
2023-04-22T00:14:47.817Z,11.17
2023-04-22T00:15:51.537Z,11.22
2023-04-22T00:16:54.646Z,11.23
2023-04-22T00:17:59.286Z,11.28
2023-04-22T00:19:02.299Z,11.32
2023-04-22T00:20:06.620Z,11.30
2023-04-22T00:21:10.035Z,11.31
2023-04-22T00:22:13.032Z,11.34
2023-04-22T00:23:16.022Z,11.35
2023-04-22T00:24:19.250Z,11.37
2023-04-22T00:25:22.265Z,11.39
2023-04-22T00:26:25.476Z,11.39
2023-04-22T00:27:28.852Z,11.42
2023-04-22T00:28:32.016Z,11.41
2023-04-22T00:29:35.415Z,11.39
2023-04-22T00:30:38.631Z,11.36
2023-04-22T00:31:42.142Z,11.40
2023-04-22T00:32:45.239Z,11.42
2023-04-22T00:33:48.466Z,11.48
2023-04-22T00:34:51.448Z,11.59
2023-04-22T00:35:55.006Z,11.63
2023-04-22T00:36:58.150Z,11.68
2023-04-22T00:38:01.447Z,11.64
2023-04-22T00:39:04.600Z,11.66
2023-04-22T00:40:08.557Z,11.73
2023-04-22T00:41:12.237Z,11.71
2023-04-22T00:42:16.440Z,11.73
2023-04-22T00:43:19.483Z,11.71
2023-04-22T00:44:23.311Z,11.71
2023-04-22T00:45:27.036Z,11.70
2023-04-22T00:46:31.379Z,11.71
2023-04-22T00:47:35.378Z,11.66
2023-04-22T00:48:38.875Z,11.60
2023-04-22T00:49:42.391Z,11.59
2023-04-22T00:50:45.683Z,11.56
2023-04-22T00:51:48.550Z,11.54
2023-04-22T00:52:51.668Z,11.55
2023-04-22T00:53:54.621Z,11.50
2023-04-22T00:54:57.781Z,11.46
2023-04-22T00:56:00.815Z,11.41
2023-04-22T00:57:05.780Z,11.43
2023-04-22T00:58:10.727Z,11.41
2023-04-22T00:59:13.810Z,11.37
2023-04-22T01:00:17.377Z,11.35
2023-04-22T01:01:20.612Z,11.26
2023-04-22T01:02:23.896Z,11.22
2023-04-22T01:03:30.920Z,11.22
2023-04-22T01:04:34.777Z,11.18
2023-04-22T01:05:38.280Z,11.14
2023-04-22T01:06:42.216Z,11.09
2023-04-22T01:07:45.798Z,11.06
2023-04-22T01:08:49.103Z,11.06
2023-04-22T01:09:52.151Z,11.01
2023-04-22T01:10:55.899Z,10.99
2023-04-22T01:11:58.889Z,10.99
2023-04-22T01:13:01.887Z,10.97
2023-04-22T01:14:05.804Z,10.94
2023-04-22T01:15:09.165Z,10.94
2023-04-22T01:16:12.345Z,10.96
2023-04-22T01:17:17.140Z,10.94
2023-04-22T01:18:20.461Z,10.94
2023-04-22T01:19:24.156Z,10.96
2023-04-22T01:20:32.222Z,10.99
2023-04-22T01:21:35.923Z,11.07
2023-04-22T01:22:44.708Z,11.02
2023-04-22T01:23:47.978Z,11.16
2023-04-22T01:24:51.389Z,11.07
2023-04-22T01:25:54.601Z,11.01
2023-04-22T01:26:57.534Z,10.98
2023-04-22T01:28:00.895Z,10.97
2023-04-22T01:29:05.196Z,10.92
2023-04-22T01:30:08.904Z,10.91
2023-04-22T01:31:12.582Z,10.84
2023-04-22T01:32:16.014Z,10.83
2023-04-22T01:33:19.297Z,10.80
2023-04-22T01:34:23.041Z,10.75
2023-04-22T01:35:25.963Z,10.75
2023-04-22T01:36:29.029Z,10.72
2023-04-22T01:37:32.566Z,10.71
2023-04-22T01:38:35.937Z,10.69
2023-04-22T01:39:39.420Z,10.66
2023-04-22T01:40:42.616Z,10.70
2023-04-22T01:41:46.272Z,10.67
2023-04-22T01:42:49.582Z,10.70
2023-04-22T01:43:58.567Z,10.76
2023-04-22T01:45:01.790Z,10.65
2023-04-22T01:46:06.001Z,10.61
2023-04-22T01:47:08.879Z,10.63
2023-04-22T01:48:11.983Z,10.55
2023-04-22T01:49:14.941Z,10.48
2023-04-22T01:50:18.688Z,10.49
2023-04-22T01:51:21.928Z,10.48
2023-04-22T01:52:26.805Z,10.44
2023-04-22T01:53:30.136Z,10.37
2023-04-22T01:54:33.723Z,10.36
2023-04-22T01:55:37.547Z,10.34
2023-04-22T01:56:41.942Z,10.34
2023-04-22T01:57:45.297Z,10.31
2023-04-22T01:58:48.360Z,10.30
2023-04-22T01:59:51.325Z,10.26
2023-04-22T02:00:54.327Z,10.25
2023-04-22T02:01:57.317Z,10.26
2023-04-22T02:03:00.640Z,10.27
2023-04-22T02:04:03.697Z,10.25
2023-04-22T02:05:08.154Z,10.26
2023-04-22T02:06:11.281Z,10.25
2023-04-22T02:07:14.337Z,10.26
2023-04-22T02:08:17.356Z,10.25
2023-04-22T02:09:20.548Z,10.24
2023-04-22T02:10:23.876Z,10.25
2023-04-22T02:11:26.829Z,10.27
2023-04-22T02:12:29.879Z,10.23
2023-04-22T02:13:39.722Z,10.28
2023-04-22T02:14:42.657Z,10.26
2023-04-22T02:15:45.879Z,10.27
2023-04-22T02:16:48.955Z,10.28
2023-04-22T02:17:51.832Z,10.30
2023-04-22T02:18:54.991Z,10.34
2023-04-22T02:19:58.184Z,10.35
2023-04-22T02:21:01.330Z,10.38
2023-04-22T02:22:04.401Z,10.45
2023-04-22T02:23:07.536Z,10.45
2023-04-22T02:24:10.501Z,10.48
2023-04-22T02:25:14.494Z,10.52
2023-04-22T02:26:17.816Z,10.53
2023-04-22T02:27:20.819Z,10.55
2023-04-22T02:28:24.059Z,10.63
2023-04-22T02:29:27.532Z,10.65
2023-04-22T02:30:30.803Z,10.70
2023-04-22T02:31:33.811Z,10.73
2023-04-22T02:32:39.131Z,10.73
2023-04-22T02:33:42.012Z,10.76
2023-04-22T02:34:45.062Z,10.77
2023-04-22T02:35:47.990Z,10.80
2023-04-22T02:36:51.026Z,10.83
2023-04-22T02:37:54.001Z,10.86
2023-04-22T02:38:56.891Z,10.91
2023-04-22T02:39:59.804Z,10.91
2023-04-22T02:41:02.838Z,10.94
2023-04-22T02:42:05.999Z,11.03
2023-04-22T02:43:09.270Z,11.06
2023-04-22T02:44:12.545Z,11.06
2023-04-22T02:45:15.642Z,11.06
2023-04-22T02:46:18.643Z,11.09
2023-04-22T02:47:22.530Z,11.10
2023-04-22T02:48:25.608Z,11.15
2023-04-22T02:49:28.661Z,11.15
2023-04-22T02:50:31.667Z,11.20
2023-04-22T02:51:35.009Z,11.25
2023-04-22T02:52:38.147Z,11.25
2023-04-22T02:53:41.335Z,11.29
2023-04-22T02:54:44.163Z,11.28
2023-04-22T02:55:47.134Z,11.28
2023-04-22T02:56:50.009Z,11.28
2023-04-22T02:57:53.031Z,11.28
2023-04-22T02:58:56.144Z,11.26
2023-04-22T02:59:59.170Z,11.25
2023-04-22T03:01:02.240Z,11.25
2023-04-22T03:02:07.064Z,11.25
2023-04-22T03:03:10.296Z,11.21
2023-04-22T03:04:14.512Z,11.25
2023-04-22T03:05:17.641Z,11.21
2023-04-22T03:06:21.073Z,11.16
2023-04-22T03:07:24.084Z,11.14
2023-04-22T03:08:27.057Z,11.12
2023-04-22T03:09:29.981Z,11.06
2023-04-22T03:10:32.938Z,11.02
2023-04-22T03:11:36.383Z,11.01
2023-04-22T03:12:39.449Z,11.01
2023-04-22T03:13:42.324Z,10.99
2023-04-22T03:14:45.261Z,10.95
2023-04-22T03:15:48.127Z,10.94
2023-04-22T03:16:51.149Z,10.88
2023-04-22T03:17:54.313Z,10.83
2023-04-22T03:18:57.431Z,10.79
2023-04-22T03:20:00.925Z,10.73
2023-04-22T03:21:04.636Z,10.72
2023-04-22T03:22:07.678Z,10.70
2023-04-22T03:23:10.765Z,10.65
2023-04-22T03:24:13.651Z,10.65
2023-04-22T03:25:16.815Z,10.65
2023-04-22T03:26:19.953Z,10.60
2023-04-22T03:27:23.118Z,10.60
2023-04-22T03:28:26.093Z,10.56
2023-04-22T03:29:29.230Z,10.52
2023-04-22T03:30:32.356Z,10.55
2023-04-22T03:31:35.453Z,10.52
2023-04-22T03:32:38.922Z,10.47
2023-04-22T03:33:41.881Z,10.44
2023-04-22T03:34:44.761Z,10.44
2023-04-22T03:35:51.302Z,10.44
2023-04-22T03:36:54.352Z,10.46
2023-04-22T03:37:57.345Z,10.44
2023-04-22T03:39:00.454Z,10.48
2023-04-22T03:40:05.966Z,10.46
2023-04-22T03:41:10.043Z,10.53
2023-04-22T03:42:14.797Z,10.49
2023-04-22T03:43:17.878Z,10.48
2023-04-22T03:44:20.793Z,10.43
2023-04-22T03:45:23.721Z,10.37
2023-04-22T03:46:26.737Z,10.31
2023-04-22T03:47:29.818Z,10.28
2023-04-22T03:48:35.921Z,10.21
2023-04-22T03:49:39.078Z,10.17
2023-04-22T03:50:42.432Z,10.10
2023-04-22T03:51:45.444Z,10.10
2023-04-22T03:52:48.592Z,10.04
2023-04-22T03:53:51.495Z,10.00
2023-04-22T03:54:54.597Z,9.97
2023-04-22T03:55:57.572Z,9.92
2023-04-22T03:57:01.063Z,9.89
2023-04-22T03:58:03.958Z,9.88
2023-04-22T03:59:07.022Z,9.80
2023-04-22T04:00:10.565Z,9.83
2023-04-22T04:01:13.709Z,9.75
2023-04-22T04:02:16.787Z,9.71
2023-04-22T04:03:20.037Z,9.68
2023-04-22T04:04:24.379Z,9.67
2023-04-22T04:05:27.665Z,9.67
2023-04-22T04:06:30.918Z,9.62
2023-04-22T04:07:33.875Z,9.59
2023-04-22T04:08:36.993Z,9.60
2023-04-22T04:09:40.463Z,9.60
2023-04-22T04:10:43.745Z,9.54
2023-04-22T04:11:46.939Z,9.51
2023-04-22T04:12:49.822Z,9.43
2023-04-22T04:13:52.671Z,9.36
2023-04-22T04:14:55.640Z,9.31
2023-04-22T04:16:00.497Z,9.24
2023-04-22T04:17:03.974Z,9.22
2023-04-22T04:18:07.164Z,9.18
2023-04-22T04:19:10.394Z,9.17
2023-04-22T04:20:13.680Z,9.16
2023-04-22T04:21:16.815Z,9.14
2023-04-22T04:22:19.996Z,9.11
2023-04-22T04:23:23.637Z,9.12
2023-04-22T04:24:26.551Z,9.06
2023-04-22T04:25:37.856Z,9.06
2023-04-22T04:26:40.950Z,9.08
2023-04-22T04:27:44.361Z,9.13
2023-04-22T04:28:49.504Z,9.15
2023-04-22T04:29:52.905Z,9.17
2023-04-22T04:30:56.150Z,9.14
2023-04-22T04:31:59.187Z,9.15
2023-04-22T04:33:07.465Z,9.16
2023-04-22T04:34:10.537Z,9.17
2023-04-22T04:35:14.446Z,9.18
2023-04-22T04:36:17.740Z,9.20
2023-04-22T04:37:22.860Z,9.23
2023-04-22T04:38:27.149Z,9.26
2023-04-22T04:39:31.108Z,9.25
2023-04-22T04:40:35.027Z,9.28
2023-04-22T04:41:39.024Z,9.33
2023-04-22T04:42:42.665Z,9.34
2023-04-22T04:43:46.622Z,9.36
2023-04-22T04:44:51.523Z,9.41
2023-04-22T04:45:54.443Z,9.46
2023-04-22T04:46:59.025Z,9.50
2023-04-22T04:48:02.966Z,9.55
2023-04-22T04:49:06.883Z,9.64
2023-04-22T04:50:10.130Z,9.69
2023-04-22T04:51:13.321Z,9.71
2023-04-22T04:52:16.253Z,9.77
2023-04-22T04:53:22.241Z,9.78
2023-04-22T04:54:25.175Z,9.81
2023-04-22T04:55:28.184Z,9.89
2023-04-22T04:56:31.957Z,9.93
2023-04-22T04:57:36.614Z,9.95
2023-04-22T04:58:42.545Z,9.98
2023-04-22T04:59:45.468Z,10.01
2023-04-22T05:00:48.553Z,10.06
2023-04-22T05:01:51.802Z,10.10
2023-04-22T05:02:55.264Z,10.13
2023-04-22T05:03:58.377Z,10.22
2023-04-22T05:05:01.523Z,10.23
2023-04-22T05:06:05.225Z,10.29
2023-04-22T05:07:08.573Z,10.36
2023-04-22T05:08:11.756Z,10.38
2023-04-22T05:09:14.729Z,10.39
2023-04-22T05:10:17.899Z,10.41
2023-04-22T05:11:20.953Z,10.45
2023-04-22T05:12:23.853Z,10.51
2023-04-22T05:13:27.881Z,10.55
2023-04-22T05:14:31.435Z,10.58
2023-04-22T05:15:34.592Z,10.67
2023-04-22T05:16:38.194Z,10.77
2023-04-22T05:17:41.287Z,10.81
2023-04-22T05:18:44.564Z,10.84
2023-04-22T05:19:47.502Z,10.88
2023-04-22T05:20:50.589Z,10.94
2023-04-22T05:21:53.535Z,11.02
2023-04-22T05:22:56.576Z,11.10
2023-04-22T05:23:59.601Z,11.16
2023-04-22T05:25:04.190Z,11.24
2023-04-22T05:26:07.256Z,11.39
2023-04-22T05:27:10.733Z,11.42
2023-04-22T05:28:13.628Z,11.48
2023-04-22T05:29:16.749Z,11.50
2023-04-22T05:30:20.058Z,11.56
2023-04-22T05:31:23.090Z,11.58
2023-04-22T05:32:26.321Z,11.62
2023-04-22T05:33:29.427Z,11.68
2023-04-22T05:34:32.767Z,11.73
2023-04-22T05:35:35.978Z,11.79
2023-04-22T05:36:39.374Z,11.83
2023-04-22T05:37:42.328Z,11.87
2023-04-22T05:38:45.305Z,11.91
2023-04-22T05:39:48.189Z,11.94
2023-04-22T05:40:51.074Z,11.97
2023-04-22T05:41:55.001Z,12.08
2023-04-22T05:42:57.999Z,12.13
2023-04-22T05:44:01.005Z,12.15
2023-04-22T05:45:04.201Z,12.26
2023-04-22T05:46:07.506Z,12.27
2023-04-22T05:47:10.797Z,12.27
2023-04-22T05:48:13.873Z,12.28
2023-04-22T05:49:16.775Z,12.29
2023-04-22T05:50:21.242Z,12.34
2023-04-22T05:51:25.890Z,12.38
2023-04-22T05:52:28.858Z,12.41
2023-04-22T05:53:31.864Z,12.43
2023-04-22T05:54:34.880Z,12.43
2023-04-22T05:55:37.762Z,12.43
2023-04-22T05:56:41.445Z,12.52
2023-04-22T05:57:44.339Z,12.53
2023-04-22T05:58:47.483Z,12.53
2023-04-22T05:59:50.474Z,12.53
2023-04-22T06:00:53.446Z,12.52
2023-04-22T06:01:56.737Z,12.52
2023-04-22T06:02:59.865Z,12.54
2023-04-22T06:04:03.229Z,12.54
2023-04-22T06:05:07.130Z,12.53
2023-04-22T06:06:10.569Z,12.53
2023-04-22T06:07:14.227Z,12.53
2023-04-22T06:08:17.623Z,12.56
2023-04-22T06:09:21.673Z,12.58
2023-04-22T06:10:25.279Z,12.61
2023-04-22T06:11:29.158Z,12.65
2023-04-22T06:12:33.923Z,12.69
2023-04-22T06:13:36.883Z,12.74
2023-04-22T06:14:39.824Z,12.89
2023-04-22T06:15:42.773Z,12.94
2023-04-22T06:16:46.154Z,12.99
2023-04-22T06:17:49.504Z,13.05
2023-04-22T06:18:52.565Z,13.12
2023-04-22T06:19:55.474Z,13.29
2023-04-22T06:20:58.729Z,13.43
2023-04-22T06:22:01.809Z,13.43
2023-04-22T06:23:05.645Z,13.45
2023-04-22T06:24:10.646Z,13.55
2023-04-22T06:25:13.789Z,13.61
2023-04-22T06:26:16.975Z,13.67
2023-04-22T06:27:20.292Z,13.74
2023-04-22T06:28:28.818Z,13.87
2023-04-22T06:29:31.979Z,13.91
2023-04-22T06:30:35.179Z,13.97
2023-04-22T06:31:38.266Z,14.03
2023-04-22T06:32:41.561Z,14.10
2023-04-22T06:33:44.590Z,14.18
2023-04-22T06:34:47.413Z,14.22
2023-04-22T06:35:50.758Z,14.38
2023-04-22T06:36:54.969Z,14.39
2023-04-22T06:37:58.149Z,14.45
2023-04-22T06:39:02.539Z,14.56
2023-04-22T06:40:06.027Z,14.62
2023-04-22T06:41:09.145Z,14.69
2023-04-22T06:42:12.251Z,14.78
2023-04-22T06:43:15.273Z,14.85
2023-04-22T06:44:18.192Z,14.96
2023-04-22T06:45:21.279Z,14.98
2023-04-22T06:46:24.509Z,14.95
2023-04-22T06:47:27.725Z,15.00
2023-04-22T06:48:30.819Z,15.21
2023-04-22T06:49:33.990Z,15.24
2023-04-22T06:50:37.190Z,15.23
2023-04-22T06:51:40.248Z,15.38
2023-04-22T06:52:43.713Z,15.52
2023-04-22T06:53:47.145Z,15.54
2023-04-22T06:54:50.272Z,15.62
2023-04-22T06:55:54.901Z,15.64
2023-04-22T06:56:58.153Z,15.67
2023-04-22T06:58:01.185Z,15.73
2023-04-22T06:59:04.192Z,15.77
2023-04-22T07:00:10.965Z,15.79
2023-04-22T07:01:14.105Z,15.82
2023-04-22T07:02:17.285Z,16.04
2023-04-22T07:03:20.421Z,16.10
2023-04-22T07:04:23.538Z,16.16
2023-04-22T07:05:26.618Z,16.24
2023-04-22T07:06:29.554Z,16.23
2023-04-22T07:07:32.683Z,16.23
2023-04-22T07:08:35.756Z,16.31
2023-04-22T07:09:40.198Z,16.28
2023-04-22T07:10:43.639Z,16.35
2023-04-22T07:11:46.647Z,16.39
2023-04-22T07:12:49.576Z,16.45
2023-04-22T07:13:52.510Z,16.49
2023-04-22T07:14:56.398Z,16.63
2023-04-22T07:16:00.259Z,16.75
2023-04-22T07:17:03.186Z,16.71
2023-04-22T07:18:06.420Z,16.71
2023-04-22T07:19:09.930Z,16.81
2023-04-22T07:20:13.000Z,16.86
2023-04-22T07:21:16.166Z,16.88
2023-04-22T07:22:19.220Z,16.95
2023-04-22T07:23:22.149Z,17.02
2023-04-22T07:24:25.134Z,17.03
2023-04-22T07:25:28.184Z,17.12
2023-04-22T07:26:32.243Z,17.31
2023-04-22T07:27:39.038Z,17.34
2023-04-22T07:28:42.089Z,17.30
2023-04-22T07:29:45.124Z,17.29
2023-04-22T07:30:48.865Z,17.27
2023-04-22T07:31:51.795Z,17.33
2023-04-22T07:32:54.966Z,17.36
2023-04-22T07:33:58.003Z,17.41
2023-04-22T07:35:01.101Z,17.51
2023-04-22T07:36:04.446Z,17.53
2023-04-22T07:37:10.389Z,17.59
2023-04-22T07:38:14.714Z,17.61
2023-04-22T07:39:18.194Z,17.64
2023-04-22T07:40:21.660Z,17.69
2023-04-22T07:41:24.628Z,17.75
2023-04-22T07:42:27.547Z,17.80
2023-04-22T07:43:30.628Z,17.80
2023-04-22T07:44:33.629Z,17.87
2023-04-22T07:45:36.760Z,17.92
2023-04-22T07:46:39.849Z,17.99
2023-04-22T07:47:42.835Z,18.20
2023-04-22T07:48:46.075Z,18.20
2023-04-22T07:49:49.552Z,18.28
2023-04-22T07:50:52.688Z,18.26
2023-04-22T07:51:55.722Z,18.26
2023-04-22T07:52:58.778Z,18.23
2023-04-22T07:54:01.591Z,18.22
2023-04-22T07:55:05.009Z,18.29
2023-04-22T07:56:08.075Z,18.37
2023-04-22T07:57:11.206Z,18.35
2023-04-22T07:58:14.396Z,18.23
2023-04-22T07:59:17.349Z,18.24
2023-04-22T08:00:20.490Z,18.33
2023-04-22T08:01:23.452Z,18.36
2023-04-22T08:02:26.644Z,18.43
2023-04-22T08:03:29.989Z,18.46
2023-04-22T08:04:33.447Z,18.49
2023-04-22T08:05:36.569Z,18.61
2023-04-22T08:06:39.626Z,18.57
2023-04-22T08:07:42.707Z,18.63
2023-04-22T08:08:45.722Z,18.72
2023-04-22T08:09:48.801Z,18.71
2023-04-22T08:10:51.726Z,18.65
2023-04-22T08:11:54.732Z,18.64
2023-04-22T08:12:57.784Z,18.67
2023-04-22T08:14:01.044Z,18.71
2023-04-22T08:15:04.381Z,18.82
2023-04-22T08:16:07.949Z,18.87
2023-04-22T08:17:10.885Z,18.90
2023-04-22T08:18:14.107Z,18.90
2023-04-22T08:19:17.021Z,18.94
2023-04-22T08:20:20.139Z,18.99
2023-04-22T08:21:24.633Z,19.04
2023-04-22T08:22:33.545Z,19.14
2023-04-22T08:23:36.480Z,19.17
2023-04-22T08:24:39.352Z,19.21
2023-04-22T08:25:42.578Z,19.19
2023-04-22T08:26:45.716Z,19.20
2023-04-22T08:27:49.914Z,19.19
2023-04-22T08:28:52.926Z,19.25
2023-04-22T08:29:56.021Z,19.34
2023-04-22T08:30:58.964Z,19.39
2023-04-22T08:32:02.097Z,19.45
2023-04-22T08:33:05.124Z,19.53
2023-04-22T08:34:08.240Z,19.56
2023-04-22T08:35:11.093Z,19.58
2023-04-22T08:36:14.050Z,19.65
2023-04-22T08:37:16.994Z,19.68
2023-04-22T08:38:20.185Z,19.77
2023-04-22T08:39:23.213Z,19.85
2023-04-22T08:40:27.597Z,19.82
2023-04-22T08:41:34.048Z,19.77
2023-04-22T08:42:38.247Z,19.71
2023-04-22T08:43:42.045Z,19.72
2023-04-22T08:44:45.958Z,19.72
2023-04-22T08:45:50.264Z,19.78
2023-04-22T08:46:54.876Z,19.73
2023-04-22T08:47:58.122Z,19.68
2023-04-22T08:49:04.248Z,19.73
2023-04-22T08:50:09.883Z,19.84
2023-04-22T08:51:14.625Z,19.85
2023-04-22T08:52:17.546Z,19.84
2023-04-22T08:53:24.877Z,19.82
2023-04-22T08:54:28.386Z,19.92
2023-04-22T08:55:32.279Z,19.99
2023-04-22T08:56:37.314Z,19.97
2023-04-22T08:57:41.561Z,20.01
2023-04-22T08:58:46.781Z,20.06
2023-04-22T08:59:51.420Z,20.10
2023-04-22T09:00:55.658Z,19.97
2023-04-22T09:02:00.105Z,19.94
2023-04-22T09:03:06.417Z,19.98
2023-04-22T09:04:15.200Z,19.99
2023-04-22T09:05:19.768Z,20.14
2023-04-22T09:06:23.993Z,20.10
2023-04-22T09:07:31.322Z,20.12
2023-04-22T09:08:34.719Z,20.18
2023-04-22T09:09:38.073Z,20.26
2023-04-22T09:10:41.313Z,20.24
2023-04-22T09:11:44.490Z,20.25
2023-04-22T09:12:49.132Z,20.26
2023-04-22T09:13:54.422Z,20.41
2023-04-22T09:14:57.377Z,20.39
2023-04-22T09:16:00.356Z,20.38
2023-04-22T09:17:03.932Z,20.43
2023-04-22T09:18:10.330Z,20.47
2023-04-22T09:19:14.622Z,20.45
2023-04-22T09:20:18.208Z,20.57
2023-04-22T09:21:21.149Z,20.56
2023-04-22T09:22:24.209Z,20.62
2023-04-22T09:23:27.090Z,20.54
2023-04-22T09:24:30.055Z,20.56
2023-04-22T09:25:36.185Z,20.58
2023-04-22T09:26:41.717Z,20.70
2023-04-22T09:27:54.708Z,20.68
2023-04-22T09:28:59.575Z,20.79
2023-04-22T09:30:09.325Z,20.82
2023-04-22T09:31:15.295Z,20.87
2023-04-22T09:32:18.846Z,20.92
2023-04-22T09:33:26.047Z,20.98
2023-04-22T09:34:29.144Z,20.97
2023-04-22T09:35:33.858Z,20.87
2023-04-22T09:36:39.700Z,20.78
2023-04-22T09:37:49.235Z,20.90
2023-04-22T09:39:00.025Z,21.02
2023-04-22T09:40:04.796Z,21.09
2023-04-22T09:41:12.714Z,20.97
2023-04-22T09:42:19.095Z,20.79
2023-04-22T09:43:22.354Z,20.80
2023-04-22T09:44:28.234Z,20.92
2023-04-22T09:45:42.752Z,21.03
2023-04-22T09:46:46.037Z,21.16
2023-04-22T09:47:49.025Z,21.32
2023-04-22T09:48:53.845Z,21.49
2023-04-22T09:49:57.026Z,21.52
2023-04-22T09:51:00.278Z,21.49
2023-04-22T09:52:03.631Z,21.44
2023-04-22T09:53:11.964Z,21.51
2023-04-22T09:54:14.964Z,21.44
2023-04-22T09:55:17.989Z,21.54
2023-04-22T09:56:21.444Z,21.57
2023-04-22T09:57:24.436Z,21.56
2023-04-22T09:58:28.171Z,21.34
2023-04-22T09:59:32.219Z,21.48
2023-04-22T10:00:38.274Z,21.56
2023-04-22T10:01:42.865Z,21.56
2023-04-22T10:02:45.974Z,21.69
2023-04-22T10:03:48.911Z,21.72
2023-04-22T10:04:52.647Z,21.81
2023-04-22T10:05:55.805Z,21.82
2023-04-22T10:06:59.909Z,21.69
2023-04-22T10:08:03.038Z,21.65
2023-04-22T10:09:08.204Z,21.41
2023-04-22T10:10:12.821Z,21.32
2023-04-22T10:11:16.270Z,21.34
2023-04-22T10:12:26.207Z,21.37
2023-04-22T10:13:36.760Z,21.48
2023-04-22T10:14:39.697Z,21.55
2023-04-22T10:15:52.306Z,21.58
2023-04-22T10:16:59.747Z,21.44
2023-04-22T10:18:06.999Z,21.28
2023-04-22T10:19:14.790Z,21.12
2023-04-22T10:20:21.358Z,20.94
2023-04-22T10:21:26.388Z,20.64
2023-04-22T10:22:30.299Z,20.58
2023-04-22T10:23:34.218Z,20.46
2023-04-22T10:24:37.992Z,20.24
2023-04-22T10:25:41.317Z,20.04
2023-04-22T10:26:51.962Z,19.89
2023-04-22T10:28:17.025Z,19.77
2023-04-22T10:29:21.917Z,19.66
2023-04-22T10:30:29.598Z,19.67
2023-04-22T10:31:32.696Z,19.63
2023-04-22T10:32:36.500Z,19.64
2023-04-22T10:33:39.775Z,19.66
2023-04-22T10:34:42.658Z,19.50
2023-04-22T10:36:09.746Z,19.42
2023-04-22T10:37:14.505Z,19.35
2023-04-22T10:38:17.653Z,19.28
2023-04-22T10:39:22.460Z,19.24
2023-04-22T10:40:25.803Z,19.24
2023-04-22T10:41:34.238Z,19.27
2023-04-22T10:42:40.523Z,19.26
2023-04-22T10:43:45.559Z,19.33
2023-04-22T10:44:53.380Z,19.36
2023-04-22T10:45:56.704Z,19.24
2023-04-22T10:47:00.761Z,19.14
2023-04-22T10:48:04.994Z,19.06
2023-04-22T10:49:13.619Z,19.01
2023-04-22T10:50:27.661Z,18.94
2023-04-22T10:52:00.396Z,18.84
2023-04-22T10:53:43.056Z,18.79
2023-04-22T10:54:46.104Z,18.78
2023-04-22T10:55:51.923Z,18.84
2023-04-22T10:57:02.408Z,18.77
2023-04-22T10:58:21.020Z,18.73
2023-04-22T10:59:23.998Z,18.63
2023-04-22T11:00:53.049Z,18.60
2023-04-22T11:02:03.409Z,18.56
2023-04-22T11:03:06.436Z,18.55
2023-04-22T11:04:23.598Z,18.54
2023-04-22T11:05:27.945Z,18.54
2023-04-22T11:06:31.397Z,18.52
2023-04-22T11:07:36.776Z,18.56
2023-04-22T11:08:45.726Z,18.58
2023-04-22T11:09:54.026Z,18.61
2023-04-22T11:11:10.046Z,18.56
2023-04-22T11:12:40.348Z,18.57
2023-04-22T11:13:47.764Z,18.55
2023-04-22T11:14:50.725Z,18.57
2023-04-22T11:15:55.820Z,18.57
2023-04-22T11:16:59.043Z,18.59
2023-04-22T11:18:02.173Z,18.59
2023-04-22T11:19:05.168Z,18.57
2023-04-22T11:20:08.753Z,18.57
2023-04-22T11:21:11.810Z,18.52
2023-04-22T11:22:15.208Z,18.56
2023-04-22T11:23:24.326Z,18.51
2023-04-22T11:24:27.182Z,18.51
2023-04-22T11:25:30.141Z,18.53
2023-04-22T11:26:35.346Z,18.53
2023-04-22T11:27:40.568Z,18.54
2023-04-22T11:28:47.130Z,18.55
2023-04-22T11:30:08.133Z,18.55
2023-04-22T11:31:12.571Z,18.56
2023-04-22T11:32:15.804Z,18.56
2023-04-22T11:33:20.082Z,18.62
2023-04-22T11:34:23.257Z,18.80
2023-04-22T11:35:30.066Z,18.93
2023-04-22T11:36:32.968Z,19.04
2023-04-22T11:37:51.154Z,19.21
2023-04-22T11:38:57.540Z,19.45
2023-04-22T11:40:21.414Z,19.66
2023-04-22T11:41:25.134Z,19.84
2023-04-22T11:42:27.900Z,20.14
2023-04-22T11:43:31.505Z,20.14
2023-04-22T11:44:34.344Z,20.23
2023-04-22T11:45:39.582Z,20.36
2023-04-22T11:46:44.816Z,20.47
2023-04-22T11:47:50.579Z,20.56
2023-04-22T11:48:53.712Z,20.56
2023-04-22T11:50:02.283Z,20.46
2023-04-22T11:51:11.851Z,20.41
2023-04-22T11:52:14.877Z,20.23
2023-04-22T11:53:25.728Z,20.12
2023-04-22T11:54:32.967Z,20.05
2023-04-22T11:55:39.771Z,20.01
2023-04-22T11:56:42.671Z,19.99
2023-04-22T11:57:46.854Z,19.91
2023-04-22T11:58:49.829Z,19.88
2023-04-22T11:59:59.570Z,19.87
2023-04-22T12:01:02.660Z,19.80
2023-04-22T12:02:06.800Z,19.79
2023-04-22T12:03:15.457Z,19.76
2023-04-22T12:04:22.482Z,19.74
2023-04-22T12:05:50.224Z,19.74
2023-04-22T12:06:53.226Z,19.82
2023-04-22T12:07:56.159Z,19.78
2023-04-22T12:09:01.326Z,19.72
2023-04-22T12:10:08.056Z,19.69
2023-04-22T12:11:12.800Z,19.69
2023-04-22T12:12:16.075Z,19.65
2023-04-22T12:13:24.370Z,19.63
2023-04-22T12:14:34.774Z,19.60
2023-04-22T12:15:47.704Z,19.60
2023-04-22T12:16:51.066Z,19.61
2023-04-22T12:17:54.983Z,19.58
2023-04-22T12:18:57.906Z,19.61
2023-04-22T12:20:01.055Z,19.68
2023-04-22T12:21:18.167Z,19.68
2023-04-22T12:22:27.894Z,19.63
2023-04-22T12:23:31.920Z,19.58
2023-04-22T12:24:34.911Z,19.56
2023-04-22T12:25:37.933Z,19.53
2023-04-22T12:26:41.573Z,19.49
2023-04-22T12:27:44.679Z,19.47
2023-04-22T12:28:48.271Z,19.47
2023-04-22T12:29:56.843Z,19.49
2023-04-22T12:31:00.013Z,19.48
2023-04-22T12:32:03.329Z,19.50
2023-04-22T12:33:07.087Z,19.51
2023-04-22T12:34:12.009Z,19.44
2023-04-22T12:35:15.045Z,19.45
2023-04-22T12:36:21.151Z,19.52
2023-04-22T12:37:24.023Z,19.56
2023-04-22T12:38:27.175Z,19.57
2023-04-22T12:39:30.098Z,19.57
2023-04-22T12:40:33.231Z,19.65
2023-04-22T12:41:36.468Z,19.58
2023-04-22T12:42:39.323Z,19.56
2023-04-22T12:43:42.303Z,19.66
2023-04-22T12:44:45.314Z,19.63
2023-04-22T12:45:48.210Z,19.79
2023-04-22T12:46:51.463Z,19.70
2023-04-22T12:47:54.498Z,19.66
2023-04-22T12:48:57.638Z,19.64
2023-04-22T12:50:01.671Z,19.58
2023-04-22T12:51:07.099Z,19.54
2023-04-22T12:52:10.646Z,19.55
2023-04-22T12:53:13.627Z,19.55
2023-04-22T12:54:16.889Z,19.53
2023-04-22T12:55:21.210Z,19.50
2023-04-22T12:56:24.485Z,19.47
2023-04-22T12:57:27.741Z,19.50
2023-04-22T12:58:30.905Z,19.57
2023-04-22T12:59:34.055Z,19.59
2023-04-22T13:00:37.289Z,19.76
2023-04-22T13:01:40.586Z,19.73
2023-04-22T13:02:45.074Z,19.76
2023-04-22T13:03:53.646Z,19.61
2023-04-22T13:04:56.880Z,19.60
2023-04-22T13:05:59.895Z,19.57
2023-04-22T13:07:02.966Z,19.53
2023-04-22T13:08:08.039Z,19.46
2023-04-22T13:09:11.327Z,19.41
2023-04-22T13:10:16.294Z,19.43
2023-04-22T13:11:19.192Z,19.47
2023-04-22T13:12:22.326Z,19.43
2023-04-22T13:13:25.577Z,19.42
2023-04-22T13:14:28.935Z,19.42
2023-04-22T13:15:32.019Z,19.43
2023-04-22T13:16:35.063Z,19.43
2023-04-22T13:17:40.976Z,19.44
2023-04-22T13:18:44.160Z,19.42
2023-04-22T13:19:48.811Z,19.46
2023-04-22T13:20:51.758Z,19.44
2023-04-22T13:21:54.594Z,19.49
2023-04-22T13:22:57.732Z,19.43
2023-04-22T13:24:00.832Z,19.42
2023-04-22T13:25:04.385Z,19.36
2023-04-22T13:26:07.436Z,19.30
2023-04-22T13:27:11.142Z,19.32
2023-04-22T13:28:14.122Z,19.35
2023-04-22T13:29:17.163Z,19.33
2023-04-22T13:30:20.347Z,19.29
2023-04-22T13:31:23.649Z,19.26
2023-04-22T13:32:26.859Z,19.23
2023-04-22T13:33:29.901Z,19.22
2023-04-22T13:34:33.023Z,19.23
2023-04-22T13:35:36.758Z,19.21
2023-04-22T13:36:39.782Z,19.19
2023-04-22T13:37:42.657Z,19.19
2023-04-22T13:38:45.756Z,19.15
2023-04-22T13:39:50.143Z,19.15
2023-04-22T13:40:53.155Z,19.12
2023-04-22T13:41:57.157Z,19.11
2023-04-22T13:43:00.260Z,19.11
2023-04-22T13:44:04.706Z,19.11
2023-04-22T13:45:08.353Z,19.10
2023-04-22T13:46:11.311Z,19.09
2023-04-22T13:47:14.592Z,19.12
2023-04-22T13:48:17.749Z,19.12
2023-04-22T13:49:20.840Z,19.15
2023-04-22T13:50:24.346Z,19.12